sensor_id;sensor_type;location;lat;lon;timestamp;temperature;humidity
54518;DHT22;40423;53.176;6.002;2023-01-01T00:00:46;12.90;99.90
54518;DHT22;40423;53.176;6.002;2023-01-01T00:03:13;12.90;99.90
54518;DHT22;40423;53.176;6.002;2023-01-01T00:05:39;12.90;99.90
54518;DHT22;40423;53.176;6.002;2023-01-01T00:08:05;12.90;99.90
54518;DHT22;40423;53.176;6.002;2023-01-01T00:10:32;12.90;99.90
54518;DHT22;40423;53.176;6.002;2023-01-01T00:12:58;12.90;99.90
54518;DHT22;40423;53.176;6.002;2023-01-01T00:15:25;12.90;99.90
54518;DHT22;40423;53.176;6.002;2023-01-01T00:17:51;12.90;99.90
54518;DHT22;40423;53.176;6.002;2023-01-01T00:20:17;12.90;99.90
54518;DHT22;40423;53.176;6.002;2023-01-01T00:22:44;12.90;99.90
54518;DHT22;40423;53.176;6.002;2023-01-01T00:25:10;13.00;99.90
54518;DHT22;40423;53.176;6.002;2023-01-01T00:27:39;13.00;99.90
54518;DHT22;40423;53.176;6.002;2023-01-01T00:30:06;13.00;99.90
54518;DHT22;40423;53.176;6.002;2023-01-01T00:32:31;13.00;99.90
54518;DHT22;40423;53.176;6.002;2023-01-01T00:34:57;13.00;99.90
54518;DHT22;40423;53.176;6.002;2023-01-01T00:37:23;13.00;99.90
54518;DHT22;40423;53.176;6.002;2023-01-01T00:39:48;13.00;99.90
54518;DHT22;40423;53.176;6.002;2023-01-01T00:42:14;13.00;99.90
54518;DHT22;40423;53.176;6.002;2023-01-01T00:44:40;13.00;99.90
54518;DHT22;40423;53.176;6.002;2023-01-01T00:47:06;13.00;99.90
54518;DHT22;40423;53.176;6.002;2023-01-01T00:49:31;13.00;99.90
54518;DHT22;40423;53.176;6.002;2023-01-01T00:51:57;12.90;99.90
54518;DHT22;40423;53.176;6.002;2023-01-01T00:54:23;12.90;99.90
54518;DHT22;40423;53.176;6.002;2023-01-01T00:56:48;12.90;99.90
54518;DHT22;40423;53.176;6.002;2023-01-01T00:59:14;12.80;99.90
54518;DHT22;40423;53.176;6.002;2023-01-01T01:01:40;12.80;99.90
54518;DHT22;40423;53.176;6.002;2023-01-01T01:04:06;12.80;99.90
54518;DHT22;40423;53.176;6.002;2023-01-01T01:06:33;12.70;99.90
54518;DHT22;40423;53.176;6.002;2023-01-01T01:08:59;12.70;99.90
54518;DHT22;40423;53.176;6.002;2023-01-01T01:11:25;12.70;99.90
54518;DHT22;40423;53.176;6.002;2023-01-01T01:13:52;12.70;99.90
54518;DHT22;40423;53.176;6.002;2023-01-01T01:16:22;12.80;99.90
54518;DHT22;40423;53.176;6.002;2023-01-01T01:18:50;12.80;99.90
54518;DHT22;40423;53.176;6.002;2023-01-01T01:21:18;12.80;99.90
54518;DHT22;40423;53.176;6.002;2023-01-01T01:23:44;12.80;99.90
54518;DHT22;40423;53.176;6.002;2023-01-01T01:26:12;12.80;99.90
54518;DHT22;40423;53.176;6.002;2023-01-01T01:28:39;12.90;99.90
54518;DHT22;40423;53.176;6.002;2023-01-01T01:31:05;12.90;99.90
54518;DHT22;40423;53.176;6.002;2023-01-01T01:33:31;12.80;99.90
54518;DHT22;40423;53.176;6.002;2023-01-01T01:35:56;12.80;99.90
54518;DHT22;40423;53.176;6.002;2023-01-01T01:38:22;12.80;99.90
54518;DHT22;40423;53.176;6.002;2023-01-01T01:40:48;12.80;99.90
54518;DHT22;40423;53.176;6.002;2023-01-01T01:46:05;12.60;99.90
54518;DHT22;40423;53.176;6.002;2023-01-01T01:48:36;12.60;99.90
54518;DHT22;40423;53.176;6.002;2023-01-01T01:51:04;12.50;99.90
54518;DHT22;40423;53.176;6.002;2023-01-01T01:53:32;12.40;99.90
54518;DHT22;40423;53.176;6.002;2023-01-01T01:56:05;12.40;99.90
54518;DHT22;40423;53.176;6.002;2023-01-01T01:58:32;12.30;99.90
54518;DHT22;40423;53.176;6.002;2023-01-01T02:00:58;12.30;99.90
54518;DHT22;40423;53.176;6.002;2023-01-01T02:06:00;12.30;99.90
54518;DHT22;40423;53.176;6.002;2023-01-01T02:08:27;12.30;99.90
54518;DHT22;40423;53.176;6.002;2023-01-01T02:10:53;12.30;99.90
54518;DHT22;40423;53.176;6.002;2023-01-01T02:13:19;12.30;99.90
54518;DHT22;40423;53.176;6.002;2023-01-01T02:15:54;12.30;99.90
54518;DHT22;40423;53.176;6.002;2023-01-01T02:21:21;12.40;99.90
54518;DHT22;40423;53.176;6.002;2023-01-01T02:26:47;12.40;99.90
54518;DHT22;40423;53.176;6.002;2023-01-01T02:29:27;12.40;99.90
54518;DHT22;40423;53.176;6.002;2023-01-01T02:32:03;12.50;99.90
54518;DHT22;40423;53.176;6.002;2023-01-01T02:34:35;12.50;99.90
54518;DHT22;40423;53.176;6.002;2023-01-01T02:37:05;12.40;99.90
54518;DHT22;40423;53.176;6.002;2023-01-01T02:39:36;12.40;99.90
54518;DHT22;40423;53.176;6.002;2023-01-01T02:42:04;12.40;99.90
54518;DHT22;40423;53.176;6.002;2023-01-01T02:44:34;12.40;99.90
54518;DHT22;40423;53.176;6.002;2023-01-01T02:47:13;12.40;99.90
54518;DHT22;40423;53.176;6.002;2023-01-01T02:49:47;12.40;99.90
54518;DHT22;40423;53.176;6.002;2023-01-01T02:55:00;12.40;99.90
54518;DHT22;40423;53.176;6.002;2023-01-01T02:57:47;12.30;99.90
54518;DHT22;40423;53.176;6.002;2023-01-01T03:00:17;12.30;99.90
54518;DHT22;40423;53.176;6.002;2023-01-01T03:11:41;12.10;99.90
54518;DHT22;40423;53.176;6.002;2023-01-01T03:14:23;12.10;99.90
54518;DHT22;40423;53.176;6.002;2023-01-01T03:17:49;12.10;99.90
54518;DHT22;40423;53.176;6.002;2023-01-01T03:19:58;12.20;99.90
54518;DHT22;40423;53.176;6.002;2023-01-01T03:22:31;12.20;99.90
54518;DHT22;40423;53.176;6.002;2023-01-01T03:25:08;12.20;99.90
54518;DHT22;40423;53.176;6.002;2023-01-01T03:27:38;12.20;99.90
54518;DHT22;40423;53.176;6.002;2023-01-01T03:30:08;12.20;99.90
54518;DHT22;40423;53.176;6.002;2023-01-01T03:32:56;12.20;99.90
54518;DHT22;40423;53.176;6.002;2023-01-01T03:35:42;12.20;99.90
54518;DHT22;40423;53.176;6.002;2023-01-01T03:38:23;12.20;99.90
54518;DHT22;40423;53.176;6.002;2023-01-01T03:40:53;12.20;99.90
54518;DHT22;40423;53.176;6.002;2023-01-01T03:46:07;12.20;99.90
54518;DHT22;40423;53.176;6.002;2023-01-01T03:48:34;12.10;99.90
54518;DHT22;40423;53.176;6.002;2023-01-01T03:54:35;12.10;99.90
54518;DHT22;40423;53.176;6.002;2023-01-01T04:00:11;12.00;99.90
54518;DHT22;40423;53.176;6.002;2023-01-01T04:05:31;12.40;99.90
54518;DHT22;40423;53.176;6.002;2023-01-01T04:08:01;11.90;99.90
54518;DHT22;40423;53.176;6.002;2023-01-01T04:10:29;11.90;99.90
54518;DHT22;40423;53.176;6.002;2023-01-01T04:12:56;11.90;99.90
54518;DHT22;40423;53.176;6.002;2023-01-01T04:15:25;11.90;99.90
54518;DHT22;40423;53.176;6.002;2023-01-01T04:17:52;11.90;99.90
54518;DHT22;40423;53.176;6.002;2023-01-01T04:20:19;11.90;99.90
54518;DHT22;40423;53.176;6.002;2023-01-01T04:22:45;11.90;99.90
54518;DHT22;40423;53.176;6.002;2023-01-01T04:25:13;11.90;99.90
54518;DHT22;40423;53.176;6.002;2023-01-01T04:27:39;11.90;99.90
54518;DHT22;40423;53.176;6.002;2023-01-01T04:30:07;11.90;99.90
54518;DHT22;40423;53.176;6.002;2023-01-01T04:32:33;11.90;99.90
54518;DHT22;40423;53.176;6.002;2023-01-01T04:34:59;11.90;99.90
54518;DHT22;40423;53.176;6.002;2023-01-01T04:37:26;11.90;99.90
54518;DHT22;40423;53.176;6.002;2023-01-01T04:39:51;11.90;99.90
54518;DHT22;40423;53.176;6.002;2023-01-01T04:42:17;11.90;99.90
54518;DHT22;40423;53.176;6.002;2023-01-01T04:44:43;11.90;99.90
54518;DHT22;40423;53.176;6.002;2023-01-01T04:47:09;11.90;99.90
54518;DHT22;40423;53.176;6.002;2023-01-01T04:49:35;11.90;99.90
54518;DHT22;40423;53.176;6.002;2023-01-01T04:52:01;11.90;99.90
54518;DHT22;40423;53.176;6.002;2023-01-01T04:54:27;11.90;99.90
54518;DHT22;40423;53.176;6.002;2023-01-01T04:56:53;11.90;99.90
54518;DHT22;40423;53.176;6.002;2023-01-01T04:59:18;11.90;99.90
54518;DHT22;40423;53.176;6.002;2023-01-01T05:01:44;11.90;99.90
54518;DHT22;40423;53.176;6.002;2023-01-01T05:04:12;12.00;99.90
54518;DHT22;40423;53.176;6.002;2023-01-01T05:06:39;12.00;99.90
54518;DHT22;40423;53.176;6.002;2023-01-01T05:09:05;12.00;99.90
54518;DHT22;40423;53.176;6.002;2023-01-01T05:11:31;12.00;99.90
54518;DHT22;40423;53.176;6.002;2023-01-01T05:14:00;12.00;99.90
54518;DHT22;40423;53.176;6.002;2023-01-01T05:16:29;12.00;99.90
54518;DHT22;40423;53.176;6.002;2023-01-01T05:18:54;11.90;99.90
54518;DHT22;40423;53.176;6.002;2023-01-01T05:21:23;11.90;99.90
54518;DHT22;40423;53.176;6.002;2023-01-01T05:23:55;11.90;99.90
54518;DHT22;40423;53.176;6.002;2023-01-01T05:26:23;11.90;99.90
54518;DHT22;40423;53.176;6.002;2023-01-01T05:28:50;11.90;99.90
54518;DHT22;40423;53.176;6.002;2023-01-01T05:31:19;11.90;99.90
54518;DHT22;40423;53.176;6.002;2023-01-01T05:33:46;11.90;99.90
54518;DHT22;40423;53.176;6.002;2023-01-01T05:36:15;11.90;99.90
54518;DHT22;40423;53.176;6.002;2023-01-01T05:38:41;11.90;99.90
54518;DHT22;40423;53.176;6.002;2023-01-01T05:41:10;11.90;99.90
54518;DHT22;40423;53.176;6.002;2023-01-01T05:43:36;11.80;99.90
54518;DHT22;40423;53.176;6.002;2023-01-01T05:46:08;11.80;99.90
54518;DHT22;40423;53.176;6.002;2023-01-01T05:48:34;11.80;99.90
54518;DHT22;40423;53.176;6.002;2023-01-01T05:51:12;11.80;99.90
54518;DHT22;40423;53.176;6.002;2023-01-01T05:53:39;11.80;99.90
54518;DHT22;40423;53.176;6.002;2023-01-01T05:56:05;11.80;99.90
54518;DHT22;40423;53.176;6.002;2023-01-01T05:58:32;11.70;99.90
54518;DHT22;40423;53.176;6.002;2023-01-01T06:01:07;11.70;99.90
54518;DHT22;40423;53.176;6.002;2023-01-01T06:03:33;11.70;99.90
54518;DHT22;40423;53.176;6.002;2023-01-01T06:06:06;11.70;99.90
54518;DHT22;40423;53.176;6.002;2023-01-01T06:08:32;11.60;99.90
54518;DHT22;40423;53.176;6.002;2023-01-01T06:11:03;11.60;99.90
54518;DHT22;40423;53.176;6.002;2023-01-01T06:13:30;11.50;99.90
54518;DHT22;40423;53.176;6.002;2023-01-01T06:15:56;11.50;99.90
54518;DHT22;40423;53.176;6.002;2023-01-01T06:18:23;11.50;99.90
54518;DHT22;40423;53.176;6.002;2023-01-01T06:20:50;11.50;99.90
54518;DHT22;40423;53.176;6.002;2023-01-01T06:23:16;11.50;99.90
54518;DHT22;40423;53.176;6.002;2023-01-01T06:25:41;11.50;99.90
54518;DHT22;40423;53.176;6.002;2023-01-01T06:28:07;11.50;99.90
54518;DHT22;40423;53.176;6.002;2023-01-01T06:30:33;11.50;99.90
54518;DHT22;40423;53.176;6.002;2023-01-01T06:33:00;11.50;99.90
54518;DHT22;40423;53.176;6.002;2023-01-01T06:35:26;11.40;99.90
54518;DHT22;40423;53.176;6.002;2023-01-01T06:37:52;11.50;99.90
54518;DHT22;40423;53.176;6.002;2023-01-01T06:40:18;11.40;99.90
54518;DHT22;40423;53.176;6.002;2023-01-01T06:42:44;11.40;99.90
54518;DHT22;40423;53.176;6.002;2023-01-01T06:45:10;11.40;99.90
54518;DHT22;40423;53.176;6.002;2023-01-01T06:47:36;11.40;99.90
54518;DHT22;40423;53.176;6.002;2023-01-01T06:50:03;11.40;99.90
54518;DHT22;40423;53.176;6.002;2023-01-01T06:52:28;11.40;99.90
54518;DHT22;40423;53.176;6.002;2023-01-01T06:54:54;11.40;99.90
54518;DHT22;40423;53.176;6.002;2023-01-01T06:57:20;11.30;99.90
54518;DHT22;40423;53.176;6.002;2023-01-01T06:59:45;11.30;99.90
54518;DHT22;40423;53.176;6.002;2023-01-01T07:02:11;11.30;99.90
54518;DHT22;40423;53.176;6.002;2023-01-01T07:04:38;11.30;99.90
54518;DHT22;40423;53.176;6.002;2023-01-01T07:07:04;11.30;99.90
54518;DHT22;40423;53.176;6.002;2023-01-01T07:09:30;11.30;99.90
54518;DHT22;40423;53.176;6.002;2023-01-01T07:11:56;11.30;99.90
54518;DHT22;40423;53.176;6.002;2023-01-01T07:14:21;11.30;99.90
54518;DHT22;40423;53.176;6.002;2023-01-01T07:16:47;11.30;99.90
54518;DHT22;40423;53.176;6.002;2023-01-01T07:19:13;11.30;99.90
54518;DHT22;40423;53.176;6.002;2023-01-01T07:21:50;11.20;99.90
54518;DHT22;40423;53.176;6.002;2023-01-01T07:24:17;11.20;99.90
54518;DHT22;40423;53.176;6.002;2023-01-01T07:26:43;11.30;99.90
54518;DHT22;40423;53.176;6.002;2023-01-01T07:29:10;11.20;99.90
54518;DHT22;40423;53.176;6.002;2023-01-01T07:31:39;11.20;99.90
54518;DHT22;40423;53.176;6.002;2023-01-01T07:34:06;11.20;99.90
54518;DHT22;40423;53.176;6.002;2023-01-01T07:36:32;11.20;99.90
54518;DHT22;40423;53.176;6.002;2023-01-01T07:38:58;11.10;99.90
54518;DHT22;40423;53.176;6.002;2023-01-01T07:41:24;11.10;99.90
54518;DHT22;40423;53.176;6.002;2023-01-01T07:43:50;11.10;99.90
54518;DHT22;40423;53.176;6.002;2023-01-01T07:46:15;11.10;99.90
54518;DHT22;40423;53.176;6.002;2023-01-01T07:48:43;11.10;99.90
54518;DHT22;40423;53.176;6.002;2023-01-01T07:51:09;11.10;99.90
54518;DHT22;40423;53.176;6.002;2023-01-01T07:53:35;11.10;99.90
54518;DHT22;40423;53.176;6.002;2023-01-01T07:56:01;11.10;99.90
54518;DHT22;40423;53.176;6.002;2023-01-01T07:58:27;11.10;99.90
54518;DHT22;40423;53.176;6.002;2023-01-01T08:00:52;11.10;99.90
54518;DHT22;40423;53.176;6.002;2023-01-01T08:03:18;11.10;99.90
54518;DHT22;40423;53.176;6.002;2023-01-01T08:05:44;11.10;99.90
54518;DHT22;40423;53.176;6.002;2023-01-01T08:08:10;11.10;99.90
54518;DHT22;40423;53.176;6.002;2023-01-01T08:10:36;11.10;99.90
54518;DHT22;40423;53.176;6.002;2023-01-01T08:13:04;11.10;99.90
54518;DHT22;40423;53.176;6.002;2023-01-01T08:15:31;11.10;99.90
54518;DHT22;40423;53.176;6.002;2023-01-01T08:17:58;11.10;99.90
54518;DHT22;40423;53.176;6.002;2023-01-01T08:20:25;11.10;99.90
54518;DHT22;40423;53.176;6.002;2023-01-01T08:22:51;11.10;99.90
54518;DHT22;40423;53.176;6.002;2023-01-01T08:25:17;11.10;99.90
54518;DHT22;40423;53.176;6.002;2023-01-01T08:27:42;11.20;99.90
54518;DHT22;40423;53.176;6.002;2023-01-01T08:30:10;11.10;99.90
54518;DHT22;40423;53.176;6.002;2023-01-01T08:32:36;11.10;99.90
54518;DHT22;40423;53.176;6.002;2023-01-01T08:35:01;11.10;99.90
54518;DHT22;40423;53.176;6.002;2023-01-01T08:37:27;11.10;99.90
54518;DHT22;40423;53.176;6.002;2023-01-01T08:39:53;11.20;99.90
54518;DHT22;40423;53.176;6.002;2023-01-01T08:42:18;11.20;99.90
54518;DHT22;40423;53.176;6.002;2023-01-01T08:44:45;11.20;99.90
54518;DHT22;40423;53.176;6.002;2023-01-01T08:47:29;11.20;99.90
54518;DHT22;40423;53.176;6.002;2023-01-01T08:49:55;11.20;99.90
54518;DHT22;40423;53.176;6.002;2023-01-01T08:52:22;11.10;99.90
54518;DHT22;40423;53.176;6.002;2023-01-01T08:54:47;11.20;99.90
54518;DHT22;40423;53.176;6.002;2023-01-01T08:57:13;11.20;99.90
54518;DHT22;40423;53.176;6.002;2023-01-01T08:59:39;11.20;99.90
54518;DHT22;40423;53.176;6.002;2023-01-01T09:02:06;11.20;99.90
54518;DHT22;40423;53.176;6.002;2023-01-01T09:04:32;11.10;99.90
54518;DHT22;40423;53.176;6.002;2023-01-01T09:06:58;11.10;99.90
54518;DHT22;40423;53.176;6.002;2023-01-01T09:09:24;11.20;99.90
54518;DHT22;40423;53.176;6.002;2023-01-01T09:11:51;11.10;99.90
54518;DHT22;40423;53.176;6.002;2023-01-01T09:14:18;11.10;99.90
54518;DHT22;40423;53.176;6.002;2023-01-01T09:16:43;11.10;99.90
54518;DHT22;40423;53.176;6.002;2023-01-01T09:19:09;11.10;99.90
54518;DHT22;40423;53.176;6.002;2023-01-01T09:21:35;11.10;99.90
54518;DHT22;40423;53.176;6.002;2023-01-01T09:24:00;11.10;99.90
54518;DHT22;40423;53.176;6.002;2023-01-01T09:26:26;11.10;99.90
54518;DHT22;40423;53.176;6.002;2023-01-01T09:28:52;11.10;99.90
54518;DHT22;40423;53.176;6.002;2023-01-01T09:31:17;11.10;99.90
54518;DHT22;40423;53.176;6.002;2023-01-01T09:33:43;11.10;99.90
54518;DHT22;40423;53.176;6.002;2023-01-01T09:36:35;11.10;99.90
54518;DHT22;40423;53.176;6.002;2023-01-01T09:39:02;11.10;99.90
54518;DHT22;40423;53.176;6.002;2023-01-01T09:41:53;11.10;99.90
54518;DHT22;40423;53.176;6.002;2023-01-01T09:44:25;11.10;99.90
54518;DHT22;40423;53.176;6.002;2023-01-01T09:46:53;11.10;99.90
54518;DHT22;40423;53.176;6.002;2023-01-01T09:49:45;11.20;99.90
54518;DHT22;40423;53.176;6.002;2023-01-01T09:52:13;11.20;99.90
54518;DHT22;40423;53.176;6.002;2023-01-01T09:54:54;11.20;99.90
54518;DHT22;40423;53.176;6.002;2023-01-01T09:57:25;11.20;99.90
54518;DHT22;40423;53.176;6.002;2023-01-01T09:59:53;11.20;99.90
54518;DHT22;40423;53.176;6.002;2023-01-01T10:02:34;11.20;99.90
54518;DHT22;40423;53.176;6.002;2023-01-01T10:05:28;11.30;99.90
54518;DHT22;40423;53.176;6.002;2023-01-01T10:11:22;11.40;99.90
54518;DHT22;40423;53.176;6.002;2023-01-01T10:13:49;11.40;99.90
54518;DHT22;40423;53.176;6.002;2023-01-01T10:18:54;11.50;99.90
54518;DHT22;40423;53.176;6.002;2023-01-01T10:21:24;11.50;99.90
54518;DHT22;40423;53.176;6.002;2023-01-01T10:26:55;11.50;99.90
54518;DHT22;40423;53.176;6.002;2023-01-01T10:29:27;11.40;99.90
54518;DHT22;40423;53.176;6.002;2023-01-01T10:31:55;11.40;99.90
54518;DHT22;40423;53.176;6.002;2023-01-01T10:34:27;11.40;99.90
54518;DHT22;40423;53.176;6.002;2023-01-01T10:36:58;11.40;99.90
54518;DHT22;40423;53.176;6.002;2023-01-01T10:39:25;11.40;99.90
54518;DHT22;40423;53.176;6.002;2023-01-01T10:41:51;11.40;99.90
54518;DHT22;40423;53.176;6.002;2023-01-01T10:44:29;11.40;99.90
54518;DHT22;40423;53.176;6.002;2023-01-01T10:46:58;11.40;99.90
54518;DHT22;40423;53.176;6.002;2023-01-01T10:49:24;11.40;99.90
54518;DHT22;40423;53.176;6.002;2023-01-01T10:51:52;11.40;99.90
54518;DHT22;40423;53.176;6.002;2023-01-01T10:56:50;11.50;99.90
54518;DHT22;40423;53.176;6.002;2023-01-01T10:59:33;11.50;99.90
54518;DHT22;40423;53.176;6.002;2023-01-01T11:02:19;11.50;99.90
54518;DHT22;40423;53.176;6.002;2023-01-01T11:04:47;11.50;99.90
54518;DHT22;40423;53.176;6.002;2023-01-01T11:07:40;11.50;99.90
54518;DHT22;40423;53.176;6.002;2023-01-01T11:10:22;11.50;99.90
54518;DHT22;40423;53.176;6.002;2023-01-01T11:12:48;11.50;99.90
54518;DHT22;40423;53.176;6.002;2023-01-01T11:15:39;11.50;99.90
54518;DHT22;40423;53.176;6.002;2023-01-01T11:20:36;11.50;99.90
54518;DHT22;40423;53.176;6.002;2023-01-01T11:23:18;11.50;99.90
54518;DHT22;40423;53.176;6.002;2023-01-01T11:28:40;11.50;99.90
54518;DHT22;40423;53.176;6.002;2023-01-01T11:33:50;11.40;99.90
54518;DHT22;40423;53.176;6.002;2023-01-01T11:36:26;11.40;99.90
54518;DHT22;40423;53.176;6.002;2023-01-01T11:39:22;11.40;99.90
54518;DHT22;40423;53.176;6.002;2023-01-01T11:41:54;11.40;99.90
54518;DHT22;40423;53.176;6.002;2023-01-01T11:44:40;11.40;99.90
54518;DHT22;40423;53.176;6.002;2023-01-01T11:49:54;11.40;99.90
54518;DHT22;40423;53.176;6.002;2023-01-01T11:52:48;11.40;99.90
54518;DHT22;40423;53.176;6.002;2023-01-01T11:55:31;11.40;99.90
54518;DHT22;40423;53.176;6.002;2023-01-01T12:00:49;11.50;99.90
54518;DHT22;40423;53.176;6.002;2023-01-01T12:03:23;11.60;99.90
54518;DHT22;40423;53.176;6.002;2023-01-01T12:06:46;11.60;99.90
54518;DHT22;40423;53.176;6.002;2023-01-01T12:09:10;11.50;99.90
54518;DHT22;40423;53.176;6.002;2023-01-01T12:12:02;11.60;99.90
54518;DHT22;40423;53.176;6.002;2023-01-01T12:17:25;11.60;99.90
54518;DHT22;40423;53.176;6.002;2023-01-01T12:22:18;11.50;99.90
54518;DHT22;40423;53.176;6.002;2023-01-01T12:24:46;11.50;99.90
54518;DHT22;40423;53.176;6.002;2023-01-01T12:29:53;11.50;99.90
54518;DHT22;40423;53.176;6.002;2023-01-01T12:32:39;11.60;99.90
54518;DHT22;40423;53.176;6.002;2023-01-01T12:35:39;11.60;99.90
54518;DHT22;40423;53.176;6.002;2023-01-01T12:51:52;12.30;99.90
54518;DHT22;40423;53.176;6.002;2023-01-01T12:59:51;11.90;99.90
54518;DHT22;40423;53.176;6.002;2023-01-01T13:02:19;11.80;99.90
54518;DHT22;40423;53.176;6.002;2023-01-01T13:04:50;11.70;99.90
54518;DHT22;40423;53.176;6.002;2023-01-01T13:07:30;11.70;99.90
54518;DHT22;40423;53.176;6.002;2023-01-01T13:10:05;11.60;99.90
54518;DHT22;40423;53.176;6.002;2023-01-01T13:12:35;11.70;99.90
54518;DHT22;40423;53.176;6.002;2023-01-01T13:20:39;11.70;99.90
54518;DHT22;40423;53.176;6.002;2023-01-01T13:45:25;11.60;99.90
54518;DHT22;40423;53.176;6.002;2023-01-01T13:48:07;11.50;99.90
54518;DHT22;40423;53.176;6.002;2023-01-01T13:56:34;11.50;99.90
54518;DHT22;40423;53.176;6.002;2023-01-01T14:01:43;11.50;99.90
54518;DHT22;40423;53.176;6.002;2023-01-01T14:06:58;11.50;99.90
54518;DHT22;40423;53.176;6.002;2023-01-01T14:09:25;11.50;99.90
54518;DHT22;40423;53.176;6.002;2023-01-01T14:11:50;11.70;99.90
54518;DHT22;40423;53.176;6.002;2023-01-01T14:14:26;11.50;99.90
54518;DHT22;40423;53.176;6.002;2023-01-01T14:16:57;11.50;99.90
54518;DHT22;40423;53.176;6.002;2023-01-01T14:19:25;11.40;99.90
54518;DHT22;40423;53.176;6.002;2023-01-01T14:21:52;11.40;99.90
54518;DHT22;40423;53.176;6.002;2023-01-01T14:24:19;11.40;99.90
54518;DHT22;40423;53.176;6.002;2023-01-01T14:26:46;11.40;99.90
54518;DHT22;40423;53.176;6.002;2023-01-01T14:29:18;11.30;99.90
54518;DHT22;40423;53.176;6.002;2023-01-01T14:31:46;11.30;99.90
54518;DHT22;40423;53.176;6.002;2023-01-01T14:36:49;11.30;99.90
54518;DHT22;40423;53.176;6.002;2023-01-01T14:39:34;11.30;99.90
54518;DHT22;40423;53.176;6.002;2023-01-01T14:42:06;11.20;99.90
54518;DHT22;40423;53.176;6.002;2023-01-01T14:44:42;11.10;99.90
54518;DHT22;40423;53.176;6.002;2023-01-01T14:49:46;11.10;99.90
54518;DHT22;40423;53.176;6.002;2023-01-01T14:52:23;11.00;99.90
54518;DHT22;40423;53.176;6.002;2023-01-01T14:54:50;11.00;99.90
54518;DHT22;40423;53.176;6.002;2023-01-01T14:57:22;10.90;99.90
54518;DHT22;40423;53.176;6.002;2023-01-01T14:59:51;10.90;99.90
54518;DHT22;40423;53.176;6.002;2023-01-01T15:02:26;10.80;99.90
54518;DHT22;40423;53.176;6.002;2023-01-01T15:04:53;10.80;99.90
54518;DHT22;40423;53.176;6.002;2023-01-01T15:07:22;10.80;99.90
54518;DHT22;40423;53.176;6.002;2023-01-01T15:09:49;10.80;99.90
54518;DHT22;40423;53.176;6.002;2023-01-01T15:12:15;10.70;99.90
54518;DHT22;40423;53.176;6.002;2023-01-01T15:14:45;10.70;99.90
54518;DHT22;40423;53.176;6.002;2023-01-01T15:17:14;10.60;99.90
54518;DHT22;40423;53.176;6.002;2023-01-01T15:19:42;10.60;99.90
54518;DHT22;40423;53.176;6.002;2023-01-01T15:22:10;10.60;99.90
54518;DHT22;40423;53.176;6.002;2023-01-01T15:24:37;10.60;99.90
54518;DHT22;40423;53.176;6.002;2023-01-01T15:27:05;10.60;99.90
54518;DHT22;40423;53.176;6.002;2023-01-01T15:29:39;10.60;99.90
54518;DHT22;40423;53.176;6.002;2023-01-01T15:32:11;10.60;99.90
54518;DHT22;40423;53.176;6.002;2023-01-01T15:34:52;10.50;99.90
54518;DHT22;40423;53.176;6.002;2023-01-01T15:37:22;10.50;99.90
54518;DHT22;40423;53.176;6.002;2023-01-01T15:39:52;10.50;99.90
54518;DHT22;40423;53.176;6.002;2023-01-01T15:42:32;10.50;99.90
54518;DHT22;40423;53.176;6.002;2023-01-01T15:48:19;10.40;99.90
54518;DHT22;40423;53.176;6.002;2023-01-01T15:53:28;10.40;99.90
54518;DHT22;40423;53.176;6.002;2023-01-01T15:56:03;10.40;99.90
54518;DHT22;40423;53.176;6.002;2023-01-01T15:58:35;10.30;99.90
54518;DHT22;40423;53.176;6.002;2023-01-01T16:01:05;10.30;99.90
54518;DHT22;40423;53.176;6.002;2023-01-01T16:03:33;10.30;99.90
54518;DHT22;40423;53.176;6.002;2023-01-01T16:06:00;10.30;99.90
54518;DHT22;40423;53.176;6.002;2023-01-01T16:08:26;10.30;99.90
54518;DHT22;40423;53.176;6.002;2023-01-01T16:10:52;10.30;99.90
54518;DHT22;40423;53.176;6.002;2023-01-01T16:13:18;10.30;99.90
54518;DHT22;40423;53.176;6.002;2023-01-01T16:16:03;10.30;99.90
54518;DHT22;40423;53.176;6.002;2023-01-01T16:18:34;10.30;99.90
54518;DHT22;40423;53.176;6.002;2023-01-01T16:21:02;10.30;99.90
54518;DHT22;40423;53.176;6.002;2023-01-01T16:23:28;10.20;99.90
54518;DHT22;40423;53.176;6.002;2023-01-01T16:25:54;10.20;99.90
54518;DHT22;40423;53.176;6.002;2023-01-01T16:28:20;10.20;99.90
54518;DHT22;40423;53.176;6.002;2023-01-01T16:30:46;10.20;99.90
54518;DHT22;40423;53.176;6.002;2023-01-01T16:33:17;10.20;99.90
54518;DHT22;40423;53.176;6.002;2023-01-01T16:35:44;10.20;99.90
54518;DHT22;40423;53.176;6.002;2023-01-01T16:38:10;10.20;99.90
54518;DHT22;40423;53.176;6.002;2023-01-01T16:40:36;10.20;99.90
54518;DHT22;40423;53.176;6.002;2023-01-01T16:43:03;10.20;99.90
54518;DHT22;40423;53.176;6.002;2023-01-01T16:45:30;10.20;99.90
54518;DHT22;40423;53.176;6.002;2023-01-01T16:47:56;10.20;99.90
54518;DHT22;40423;53.176;6.002;2023-01-01T16:50:22;10.20;99.90
54518;DHT22;40423;53.176;6.002;2023-01-01T16:52:47;10.20;99.90
54518;DHT22;40423;53.176;6.002;2023-01-01T16:55:13;10.20;99.90
54518;DHT22;40423;53.176;6.002;2023-01-01T16:57:39;10.20;99.90
54518;DHT22;40423;53.176;6.002;2023-01-01T17:00:06;10.20;99.90
54518;DHT22;40423;53.176;6.002;2023-01-01T17:02:33;10.20;99.90
54518;DHT22;40423;53.176;6.002;2023-01-01T17:04:59;10.10;99.90
54518;DHT22;40423;53.176;6.002;2023-01-01T17:07:25;10.10;99.90
54518;DHT22;40423;53.176;6.002;2023-01-01T17:09:51;10.20;99.90
54518;DHT22;40423;53.176;6.002;2023-01-01T17:12:16;10.20;99.90
54518;DHT22;40423;53.176;6.002;2023-01-01T17:14:42;10.20;99.90
54518;DHT22;40423;53.176;6.002;2023-01-01T17:17:08;10.10;99.90
54518;DHT22;40423;53.176;6.002;2023-01-01T17:19:34;10.20;99.90
54518;DHT22;40423;53.176;6.002;2023-01-01T17:21:59;10.20;99.90
54518;DHT22;40423;53.176;6.002;2023-01-01T17:24:25;10.20;99.90
54518;DHT22;40423;53.176;6.002;2023-01-01T17:26:53;10.20;99.90
54518;DHT22;40423;53.176;6.002;2023-01-01T17:29:22;10.20;99.90
54518;DHT22;40423;53.176;6.002;2023-01-01T17:31:49;10.20;99.90
54518;DHT22;40423;53.176;6.002;2023-01-01T17:34:15;10.20;99.90
54518;DHT22;40423;53.176;6.002;2023-01-01T17:36:42;10.20;99.90
54518;DHT22;40423;53.176;6.002;2023-01-01T17:39:13;10.20;99.90
54518;DHT22;40423;53.176;6.002;2023-01-01T17:41:40;10.20;99.90
54518;DHT22;40423;53.176;6.002;2023-01-01T17:44:06;10.20;99.90
54518;DHT22;40423;53.176;6.002;2023-01-01T17:46:32;10.30;99.90
54518;DHT22;40423;53.176;6.002;2023-01-01T17:48:59;10.30;99.90
54518;DHT22;40423;53.176;6.002;2023-01-01T17:51:26;10.30;99.90
54518;DHT22;40423;53.176;6.002;2023-01-01T17:53:53;10.30;99.90
54518;DHT22;40423;53.176;6.002;2023-01-01T17:56:20;10.30;99.90
54518;DHT22;40423;53.176;6.002;2023-01-01T17:58:48;10.30;99.90
54518;DHT22;40423;53.176;6.002;2023-01-01T18:03:51;10.40;99.90